sensor_id;sensor_type;location;lat;lon;timestamp;pressure;altitude;pressure_sealevel;temperature;humidity
75913;BME280;64592;52.168;21.040;2024-03-07T00:00:55;101335.97;;;3.69;85.41
75913;BME280;64592;52.168;21.040;2024-03-07T00:05:58;101340.31;;;3.71;87.09
75913;BME280;64592;52.168;21.040;2024-03-07T00:11:01;101346.50;;;3.72;87.91
75913;BME280;64592;52.168;21.040;2024-03-07T00:16:03;101345.63;;;3.71;88.44
75913;BME280;64592;52.168;21.040;2024-03-07T00:21:06;101347.31;;;3.75;92.96
75913;BME280;64592;52.168;21.040;2024-03-07T00:26:08;101341.06;;;3.76;96.10
75913;BME280;64592;52.168;21.040;2024-03-07T00:31:10;101333.09;;;3.75;98.10
75913;BME280;64592;52.168;21.040;2024-03-07T00:36:13;101339.53;;;3.68;98.68
75913;BME280;64592;52.168;21.040;2024-03-07T00:41:16;101333.34;;;3.67;100.00
75913;BME280;64592;52.168;21.040;2024-03-07T00:46:18;101338.75;;;3.64;100.00
75913;BME280;64592;52.168;21.040;2024-03-07T00:51:21;101334.47;;;3.60;100.00
75913;BME280;64592;52.168;21.040;2024-03-07T00:56:23;101333.72;;;3.55;100.00
75913;BME280;64592;52.168;21.040;2024-03-07T01:01:24;101335.56;;;3.53;100.00
75913;BME280;64592;52.168;21.040;2024-03-07T01:06:28;101333.81;;;3.52;98.66
75913;BME280;64592;52.168;21.040;2024-03-07T01:11:30;101337.56;;;3.46;96.20
75913;BME280;64592;52.168;21.040;2024-03-07T01:16:31;101337.56;;;3.46;95.98
75913;BME280;64592;52.168;21.040;2024-03-07T01:21:35;101333.19;;;3.44;94.38
75913;BME280;64592;52.168;21.040;2024-03-07T01:26:36;101341.25;;;3.41;95.90
75913;BME280;64592;52.168;21.040;2024-03-07T01:31:38;101336.91;;;3.38;95.65
75913;BME280;64592;52.168;21.040;2024-03-07T01:36:41;101339.66;;;3.35;95.68
75913;BME280;64592;52.168;21.040;2024-03-07T01:41:42;101339.75;;;3.32;96.40
75913;BME280;64592;52.168;21.040;2024-03-07T01:46:45;101339.19;;;3.21;97.36
75913;BME280;64592;52.168;21.040;2024-03-07T01:51:48;101332.25;;;3.16;97.66
75913;BME280;64592;52.168;21.040;2024-03-07T01:56:50;101327.19;;;3.06;97.72
75913;BME280;64592;52.168;21.040;2024-03-07T02:01:52;101334.50;;;3.00;98.47
75913;BME280;64592;52.168;21.040;2024-03-07T02:06:57;101342.63;;;2.95;99.31
75913;BME280;64592;52.168;21.040;2024-03-07T02:11:58;101334.84;;;2.88;99.17
75913;BME280;64592;52.168;21.040;2024-03-07T02:17:00;101338.72;;;2.76;99.20
75913;BME280;64592;52.168;21.040;2024-03-07T02:22:04;101338.16;;;2.65;99.55
75913;BME280;64592;52.168;21.040;2024-03-07T02:27:06;101341.88;;;2.58;99.75
75913;BME280;64592;52.168;21.040;2024-03-07T02:32:09;101337.72;;;2.48;99.93
75913;BME280;64592;52.168;21.040;2024-03-07T02:37:13;101343.25;;;2.39;99.79
75913;BME280;64592;52.168;21.040;2024-03-07T02:42:15;101349.47;;;2.39;99.57
75913;BME280;64592;52.168;21.040;2024-03-07T02:47:16;101349.66;;;2.31;100.00
75913;BME280;64592;52.168;21.040;2024-03-07T02:52:19;101344.44;;;2.28;100.00
75913;BME280;64592;52.168;21.040;2024-03-07T02:57:21;101347.44;;;2.15;100.00
75913;BME280;64592;52.168;21.040;2024-03-07T03:02:23;101335.94;;;2.14;100.00
75913;BME280;64592;52.168;21.040;2024-03-07T03:07:27;101351.13;;;2.08;100.00
75913;BME280;64592;52.168;21.040;2024-03-07T03:12:28;101341.63;;;1.99;100.00
75913;BME280;64592;52.168;21.040;2024-03-07T03:17:30;101346.28;;;1.89;100.00
75913;BME280;64592;52.168;21.040;2024-03-07T03:22:33;101353.50;;;1.84;100.00
75913;BME280;64592;52.168;21.040;2024-03-07T03:27:35;101344.94;;;1.72;100.00
75913;BME280;64592;52.168;21.040;2024-03-07T03:32:37;101344.16;;;1.67;100.00
75913;BME280;64592;52.168;21.040;2024-03-07T03:37:40;101354.91;;;1.62;100.00
75913;BME280;64592;52.168;21.040;2024-03-07T03:42:43;101354.22;;;1.54;100.00
75913;BME280;64592;52.168;21.040;2024-03-07T03:47:45;101360.66;;;1.42;100.00
75913;BME280;64592;52.168;21.040;2024-03-07T03:52:49;101360.97;;;1.27;100.00
75913;BME280;64592;52.168;21.040;2024-03-07T03:57:51;101352.34;;;1.17;100.00
75913;BME280;64592;52.168;21.040;2024-03-07T04:02:53;101364.94;;;1.08;100.00
75913;BME280;64592;52.168;21.040;2024-03-07T04:07:57;101356.38;;;0.94;100.00
75913;BME280;64592;52.168;21.040;2024-03-07T04:12:58;101358.31;;;0.86;100.00
75913;BME280;64592;52.168;21.040;2024-03-07T04:18:00;101361.06;;;0.81;100.00
75913;BME280;64592;52.168;21.040;2024-03-07T04:23:03;101363.13;;;0.65;100.00
75913;BME280;64592;52.168;21.040;2024-03-07T04:28:05;101365.09;;;0.53;100.00
75913;BME280;64592;52.168;21.040;2024-03-07T04:33:08;101358.16;;;0.46;100.00
75913;BME280;64592;52.168;21.040;2024-03-07T04:38:11;101361.91;;;0.35;100.00
75913;BME280;64592;52.168;21.040;2024-03-07T04:43:15;101364.69;;;0.28;100.00
75913;BME280;64592;52.168;21.040;2024-03-07T04:48:17;101366.47;;;0.26;100.00
75913;BME280;64592;52.168;21.040;2024-03-07T04:53:20;101369.22;;;0.21;100.00
75913;BME280;64592;52.168;21.040;2024-03-07T04:58:21;101377.34;;;0.11;100.00
75913;BME280;64592;52.168;21.040;2024-03-07T05:03:23;101380.88;;;0.10;100.00
75913;BME280;64592;52.168;21.040;2024-03-07T05:08:27;101381.91;;;0.01;100.00
75913;BME280;64592;52.168;21.040;2024-03-07T05:13:28;101389.03;;;-0.03;100.00
75913;BME280;64592;52.168;21.040;2024-03-07T05:18:31;101392.47;;;0.03;100.00
75913;BME280;64592;52.168;21.040;2024-03-07T05:23:34;101393.38;;;0.02;100.00
75913;BME280;64592;52.168;21.040;2024-03-07T05:28:36;101396.84;;;0.07;100.00
75913;BME280;64592;52.168;21.040;2024-03-07T05:33:38;101396.13;;;-0.05;100.00
75913;BME280;64592;52.168;21.040;2024-03-07T05:38:42;101402.44;;;-0.15;100.00
75913;BME280;64592;52.168;21.040;2024-03-07T05:43:44;101402.50;;;-0.18;100.00
75913;BME280;64592;52.168;21.040;2024-03-07T05:48:46;101392.81;;;-0.19;100.00
75913;BME280;64592;52.168;21.040;2024-03-07T05:53:53;101396.31;;;-0.15;100.00
75913;BME280;64592;52.168;21.040;2024-03-07T05:58:55;101400.78;;;-0.20;100.00
75913;BME280;64592;52.168;21.040;2024-03-07T06:03:57;101407.91;;;-0.24;100.00
75913;BME280;64592;52.168;21.040;2024-03-07T06:09:00;101399.94;;;-0.22;100.00
75913;BME280;64592;52.168;21.040;2024-03-07T06:14:03;101401.66;;;-0.20;100.00
75913;BME280;64592;52.168;21.040;2024-03-07T06:19:07;101403.38;;;-0.16;100.00
75913;BME280;64592;52.168;21.040;2024-03-07T06:24:10;101414.88;;;-0.17;100.00
75913;BME280;64592;52.168;21.040;2024-03-07T06:29:15;101408.50;;;-0.05;100.00
75913;BME280;64592;52.168;21.040;2024-03-07T06:34:17;101413.59;;;0.09;100.00
75913;BME280;64592;52.168;21.040;2024-03-07T06:39:20;101414.47;;;0.08;100.00
75913;BME280;64592;52.168;21.040;2024-03-07T06:44:22;101410.13;;;0.05;100.00
75913;BME280;64592;52.168;21.040;2024-03-07T06:49:24;101408.25;;;0.10;100.00
75913;BME280;64592;52.168;21.040;2024-03-07T06:54:27;101412.56;;;0.19;100.00
75913;BME280;64592;52.168;21.040;2024-03-07T06:59:29;101412.59;;;0.16;100.00
75913;BME280;64592;52.168;21.040;2024-03-07T07:04:31;101411.50;;;0.29;100.00
75913;BME280;64592;52.168;21.040;2024-03-07T07:09:43;101414.81;;;0.42;100.00
75913;BME280;64592;52.168;21.040;2024-03-07T07:14:45;101420.25;;;0.35;100.00
75913;BME280;64592;52.168;21.040;2024-03-07T07:19:46;101418.34;;;0.44;100.00
75913;BME280;64592;52.168;21.040;2024-03-07T07:24:49;101417.16;;;0.60;100.00
75913;BME280;64592;52.168;21.040;2024-03-07T07:29:51;101417.81;;;0.74;100.00
75913;BME280;64592;52.168;21.040;2024-03-07T07:34:53;101419.31;;;0.89;100.00
75913;BME280;64592;52.168;21.040;2024-03-07T07:39:56;101420.72;;;1.05;100.00
75913;BME280;64592;52.168;21.040;2024-03-07T07:44:57;101429.22;;;1.24;100.00
75913;BME280;64592;52.168;21.040;2024-03-07T07:49:59;101423.75;;;1.31;100.00
75913;BME280;64592;52.168;21.040;2024-03-07T07:55:03;101429.66;;;1.45;100.00
75913;BME280;64592;52.168;21.040;2024-03-07T08:00:06;101424.97;;;1.58;100.00
75913;BME280;64592;52.168;21.040;2024-03-07T08:05:10;101424.91;;;1.61;98.31
75913;BME280;64592;52.168;21.040;2024-03-07T08:10:19;101426.75;;;1.58;98.37
75913;BME280;64592;52.168;21.040;2024-03-07T08:15:21;101430.97;;;1.68;97.20
75913;BME280;64592;52.168;21.040;2024-03-07T08:20:24;101429.91;;;1.75;96.42
75913;BME280;64592;52.168;21.040;2024-03-07T08:25:28;101421.00;;;1.77;96.33
75913;BME280;64592;52.168;21.040;2024-03-07T08:30:30;101429.84;;;1.78;94.77
75913;BME280;64592;52.168;21.040;2024-03-07T08:35:32;101423.34;;;1.91;94.51
75913;BME280;64592;52.168;21.040;2024-03-07T08:40:35;101413.31;;;2.02;93.23
75913;BME280;64592;52.168;21.040;2024-03-07T08:45:37;101422.91;;;2.09;92.00
75913;BME280;64592;52.168;21.040;2024-03-07T08:50:38;101423.44;;;2.23;92.17
75913;BME280;64592;52.168;21.040;2024-03-07T08:55:42;101414.22;;;2.38;88.68
75913;BME280;64592;52.168;21.040;2024-03-07T09:00:43;101404.41;;;2.42;84.30
75913;BME280;64592;52.168;21.040;2024-03-07T09:05:46;101413.91;;;2.52;82.79
75913;BME280;64592;52.168;21.040;2024-03-07T09:10:49;101417.09;;;2.66;82.15
75913;BME280;64592;52.168;21.040;2024-03-07T09:15:55;101414.94;;;2.80;83.18
75913;BME280;64592;52.168;21.040;2024-03-07T09:20:57;101405.63;;;2.96;79.41
75913;BME280;64592;52.168;21.040;2024-03-07T09:26:00;101406.53;;;2.95;77.36
75913;BME280;64592;52.168;21.040;2024-03-07T09:31:03;101406.19;;;3.07;78.17
75913;BME280;64592;52.168;21.040;2024-03-07T09:36:05;101411.97;;;3.23;76.40
75913;BME280;64592;52.168;21.040;2024-03-07T09:41:08;101406.25;;;3.35;77.79
75913;BME280;64592;52.168;21.040;2024-03-07T09:46:10;101404.19;;;3.46;76.64
75913;BME280;64592;52.168;21.040;2024-03-07T09:51:13;101411.94;;;3.54;73.85
75913;BME280;64592;52.168;21.040;2024-03-07T09:56:20;101410.84;;;3.61;73.52
75913;BME280;64592;52.168;21.040;2024-03-07T10:01:25;101413.13;;;3.73;72.36
75913;BME280;64592;52.168;21.040;2024-03-07T10:06:28;101403.94;;;3.83;73.34
75913;BME280;64592;52.168;21.040;2024-03-07T10:11:32;101399.38;;;3.87;71.62
75913;BME280;64592;52.168;21.040;2024-03-07T10:16:34;101405.31;;;3.97;71.22
75913;BME280;64592;52.168;21.040;2024-03-07T10:21:36;101393.28;;;4.11;70.99
75913;BME280;64592;52.168;21.040;2024-03-07T10:26:39;101387.53;;;4.23;68.06
75913;BME280;64592;52.168;21.040;2024-03-07T10:31:40;101382.97;;;4.27;66.13
75913;BME280;64592;52.168;21.040;2024-03-07T10:36:44;101390.53;;;4.41;68.13
75913;BME280;64592;52.168;21.040;2024-03-07T10:41:48;101388.91;;;4.61;66.10
75913;BME280;64592;52.168;21.040;2024-03-07T10:46:52;101392.84;;;4.76;68.70
75913;BME280;64592;52.168;21.040;2024-03-07T10:52:00;101394.00;;;4.94;66.94
75913;BME280;64592;52.168;21.040;2024-03-07T10:57:12;101382.72;;;5.11;64.74
75913;BME280;64592;52.168;21.040;2024-03-07T11:02:24;101388.50;;;5.23;63.36
75913;BME280;64592;52.168;21.040;2024-03-07T11:07:28;101383.22;;;5.45;64.44
75913;BME280;64592;52.168;21.040;2024-03-07T11:12:32;101386.50;;;5.75;61.76
75913;BME280;64592;52.168;21.040;2024-03-07T11:17:35;101383.13;;;5.93;61.71
75913;BME280;64592;52.168;21.040;2024-03-07T11:22:37;101383.16;;;6.15;60.63
75913;BME280;64592;52.168;21.040;2024-03-07T11:27:51;101370.72;;;6.56;59.01
75913;BME280;64592;52.168;21.040;2024-03-07T11:32:54;101363.47;;;6.98;57.17
75913;BME280;64592;52.168;21.040;2024-03-07T11:37:58;101363.00;;;7.09;55.13
75913;BME280;64592;52.168;21.040;2024-03-07T11:43:02;101370.22;;;7.27;56.05
75913;BME280;64592;52.168;21.040;2024-03-07T11:48:06;101355.63;;;7.53;52.14
75913;BME280;64592;52.168;21.040;2024-03-07T11:53:09;101370.28;;;7.84;52.23
75913;BME280;64592;52.168;21.040;2024-03-07T11:58:16;101343.44;;;8.01;52.31
75913;BME280;64592;52.168;21.040;2024-03-07T12:03:20;101352.78;;;8.30;54.31
75913;BME280;64592;52.168;21.040;2024-03-07T12:08:22;101340.88;;;8.35;52.47
75913;BME280;64592;52.168;21.040;2024-03-07T12:13:26;101337.19;;;8.72;50.93
75913;BME280;64592;52.168;21.040;2024-03-07T12:18:29;101343.03;;;8.80;49.95
75913;BME280;64592;52.168;21.040;2024-03-07T12:23:31;101332.03;;;8.85;50.16
75913;BME280;64592;52.168;21.040;2024-03-07T12:28:35;101332.34;;;8.96;49.17
75913;BME280;64592;52.168;21.040;2024-03-07T12:33:38;101332.59;;;9.24;48.83
75913;BME280;64592;52.168;21.040;2024-03-07T12:38:42;101318.72;;;9.32;47.25
75913;BME280;64592;52.168;21.040;2024-03-07T12:43:45;101330.91;;;9.86;45.98
75913;BME280;64592;52.168;21.040;2024-03-07T12:48:47;101324.75;;;10.00;45.14
75913;BME280;64592;52.168;21.040;2024-03-07T12:53:50;101320.16;;;10.18;43.23
75913;BME280;64592;52.168;21.040;2024-03-07T12:58:53;101312.97;;;10.17;43.94
75913;BME280;64592;52.168;21.040;2024-03-07T13:03:55;101316.25;;;10.07;45.11
75913;BME280;64592;52.168;21.040;2024-03-07T13:08:56;101302.91;;;10.36;44.81
75913;BME280;64592;52.168;21.040;2024-03-07T13:13:59;101303.22;;;10.45;43.59
75913;BME280;64592;52.168;21.040;2024-03-07T13:19:01;101300.00;;;10.39;43.62
75913;BME280;64592;52.168;21.040;2024-03-07T13:24:05;101304.78;;;10.49;42.62
75913;BME280;64592;52.168;21.040;2024-03-07T13:29:10;101292.75;;;10.55;42.08
75913;BME280;64592;52.168;21.040;2024-03-07T13:34:12;101294.88;;;10.50;40.91
75913;BME280;64592;52.168;21.040;2024-03-07T13:39:14;101296.00;;;10.46;42.11
75913;BME280;64592;52.168;21.040;2024-03-07T13:44:18;101295.00;;;10.33;41.75
75913;BME280;64592;52.168;21.040;2024-03-07T13:49:22;101288.81;;;10.31;41.90
75913;BME280;64592;52.168;21.040;2024-03-07T13:54:24;101293.28;;;10.46;41.91
75913;BME280;64592;52.168;21.040;2024-03-07T13:59:57;101282.94;;;10.68;41.34
75913;BME280;64592;52.168;21.040;2024-03-07T14:05:32;101285.75;;;10.67;41.86
75913;BME280;64592;52.168;21.040;2024-03-07T14:11:01;101273.16;;;10.81;41.52
75913;BME280;64592;52.168;21.040;2024-03-07T14:16:57;101279.59;;;10.79;42.00
75913;BME280;64592;52.168;21.040;2024-03-07T14:22:20;101277.56;;;10.68;41.23
75913;BME280;64592;52.168;21.040;2024-03-07T14:27:32;101272.47;;;10.78;40.54
75913;BME280;64592;52.168;21.040;2024-03-07T14:32:37;101275.88;;;10.81;41.10
75913;BME280;64592;52.168;21.040;2024-03-07T14:37:46;101282.28;;;10.65;41.29
75913;BME280;64592;52.168;21.040;2024-03-07T14:42:54;101274.59;;;10.29;42.07
75913;BME280;64592;52.168;21.040;2024-03-07T14:47:58;101269.94;;;9.85;41.25
75913;BME280;64592;52.168;21.040;2024-03-07T14:53:01;101264.31;;;9.58;43.14
75913;BME280;64592;52.168;21.040;2024-03-07T14:58:03;101267.81;;;9.12;44.20
75913;BME280;64592;52.168;21.040;2024-03-07T15:03:09;101259.97;;;8.91;45.32
75913;BME280;64592;52.168;21.040;2024-03-07T15:08:11;101254.44;;;8.44;46.40
75913;BME280;64592;52.168;21.040;2024-03-07T15:13:13;101251.41;;;7.99;46.87
75913;BME280;64592;52.168;21.040;2024-03-07T15:18:16;101235.44;;;7.60;48.73
75913;BME280;64592;52.168;21.040;2024-03-07T15:23:17;101242.28;;;7.48;49.60
75913;BME280;64592;52.168;21.040;2024-03-07T15:28:19;101243.59;;;7.39;49.77
75913;BME280;64592;52.168;21.040;2024-03-07T15:33:23;101253.97;;;7.28;50.82
75913;BME280;64592;52.168;21.040;2024-03-07T15:38:25;101244.69;;;7.17;51.33
75913;BME280;64592;52.168;21.040;2024-03-07T15:43:27;101245.13;;;7.08;51.53
75913;BME280;64592;52.168;21.040;2024-03-07T15:48:31;101246.56;;;6.96;51.97
75913;BME280;64592;52.168;21.040;2024-03-07T15:53:33;101237.84;;;6.91;52.00
75913;BME280;64592;52.168;21.040;2024-03-07T15:58:35;101242.09;;;6.76;53.08
75913;BME280;64592;52.168;21.040;2024-03-07T16:03:38;101237.38;;;6.62;52.34
75913;BME280;64592;52.168;21.040;2024-03-07T16:08:39;101252.84;;;6.56;53.61
75913;BME280;64592;52.168;21.040;2024-03-07T16:13:41;101256.88;;;6.46;54.89
75913;BME280;64592;52.168;21.040;2024-03-07T16:18:46;101264.63;;;6.32;53.68
75913;BME280;64592;52.168;21.040;2024-03-07T16:23:48;101281.19;;;6.21;54.91
75913;BME280;64592;52.168;21.040;2024-03-07T16:28:52;101277.34;;;6.06;55.93
75913;BME280;64592;52.168;21.040;2024-03-07T16:33:55;101271.56;;;5.95;56.22
75913;BME280;64592;52.168;21.040;2024-03-07T16:38:58;101275.66;;;5.82;56.20
75913;BME280;64592;52.168;21.040;2024-03-07T16:44:07;101271.53;;;5.73;57.25
75913;BME280;64592;52.168;21.040;2024-03-07T16:49:10;101274.66;;;5.63;58.67
75913;BME280;64592;52.168;21.040;2024-03-07T16:54:14;101271.28;;;5.58;58.64
75913;BME280;64592;52.168;21.040;2024-03-07T16:59:16;101274.25;;;5.50;59.45
75913;BME280;64592;52.168;21.040;2024-03-07T17:04:19;101277.25;;;5.42;60.24
75913;BME280;64592;52.168;21.040;2024-03-07T17:09:21;101278.47;;;5.34;61.68
75913;BME280;64592;52.168;21.040;2024-03-07T17:14:23;101273.41;;;5.26;62.45
75913;BME280;64592;52.168;21.040;2024-03-07T17:19:26;101276.41;;;5.19;63.93
75913;BME280;64592;52.168;21.040;2024-03-07T17:24:27;101268.56;;;5.14;62.65
75913;BME280;64592;52.168;21.040;2024-03-07T17:29:30;101274.25;;;5.05;64.92
75913;BME280;64592;52.168;21.040;2024-03-07T17:34:34;101279.00;;;4.97;66.67
75913;BME280;64592;52.168;21.040;2024-03-07T17:39:35;101270.53;;;4.86;66.66
75913;BME280;64592;52.168;21.040;2024-03-07T17:44:37;101274.34;;;4.79;69.10
75913;BME280;64592;52.168;21.040;2024-03-07T17:49:40;101273.13;;;4.64;70.18
75913;BME280;64592;52.168;21.040;2024-03-07T17:54:43;101268.97;;;4.55;70.82
75913;BME280;64592;52.168;21.040;2024-03-07T17:59:47;101276.53;;;4.44;71.34
75913;BME280;64592;52.168;21.040;2024-03-07T18:04:50;101273.06;;;4.41;70.72
75913;BME280;64592;52.168;21.040;2024-03-07T18:09:52;101267.31;;;4.28;74.05
75913;BME280;64592;52.168;21.040;2024-03-07T18:14:55;101269.34;;;4.20;74.53
75913;BME280;64592;52.168;21.040;2024-03-07T18:19:58;101279.38;;;4.13;74.13
75913;BME280;64592;52.168;21.040;2024-03-07T18:25:00;101288.34;;;4.11;73.98
75913;BME280;64592;52.168;21.040;2024-03-07T18:30:02;101284.75;;;4.12;73.48
75913;BME280;64592;52.168;21.040;2024-03-07T18:35:13;101290.41;;;4.03;74.63
75913;BME280;64592;52.168;21.040;2024-03-07T18:40:16;101280.03;;;3.94;76.66
75913;BME280;64592;52.168;21.040;2024-03-07T18:45:22;101278.50;;;3.86;75.86
75913;BME280;64592;52.168;21.040;2024-03-07T18:50:26;101288.47;;;3.80;77.05
75913;BME280;64592;52.168;21.040;2024-03-07T18:55:28;101285.81;;;3.80;76.46
75913;BME280;64592;52.168;21.040;2024-03-07T19:00:30;101290.19;;;3.82;76.16
75913;BME280;64592;52.168;21.040;2024-03-07T19:05:35;101284.28;;;3.73;76.50
75913;BME280;64592;52.168;21.040;2024-03-07T19:10:38;101285.28;;;3.70;76.23
75913;BME280;64592;52.168;21.040;2024-03-07T19:15:44;101281.84;;;3.65;78.24
75913;BME280;64592;52.168;21.040;2024-03-07T19:20:48;101292.09;;;3.51;80.38
75913;BME280;64592;52.168;21.040;2024-03-07T19:25:50;101284.47;;;3.39;80.97
75913;BME280;64592;52.168;21.040;2024-03-07T19:30:51;101280.31;;;3.30;82.44
75913;BME280;64592;52.168;21.040;2024-03-07T19:35:55;101293.94;;;3.20;81.74
75913;BME280;64592;52.168;21.040;2024-03-07T19:40:59;101283.75;;;3.04;84.88
75913;BME280;64592;52.168;21.040;2024-03-07T19:46:01;101281.41;;;2.94;84.29
75913;BME280;64592;52.168;21.040;2024-03-07T19:51:05;101286.78;;;2.92;84.41
75913;BME280;64592;52.168;21.040;2024-03-07T19:56:09;101278.97;;;2.86;85.47
75913;BME280;64592;52.168;21.040;2024-03-07T20:01:19;101279.03;;;2.83;84.52
75913;BME280;64592;52.168;21.040;2024-03-07T20:06:22;101271.34;;;2.74;85.01
75913;BME280;64592;52.168;21.040;2024-03-07T20:11:24;101272.16;;;2.76;85.31
75913;BME280;64592;52.168;21.040;2024-03-07T20:16:35;101272.41;;;2.67;87.76
75913;BME280;64592;52.168;21.040;2024-03-07T20:21:38;101278.75;;;2.63;88.42
75913;BME280;64592;52.168;21.040;2024-03-07T20:26:40;101276.34;;;2.54;89.10
75913;BME280;64592;52.168;21.040;2024-03-07T20:31:46;101278.41;;;2.44;91.78
75913;BME280;64592;52.168;21.040;2024-03-07T20:36:49;101280.25;;;2.41;88.39
75913;BME280;64592;52.168;21.040;2024-03-07T20:41:51;101281.09;;;2.43;87.39
75913;BME280;64592;52.168;21.040;2024-03-07T20:46:53;101272.03;;;2.50;85.59
75913;BME280;64592;52.168;21.040;2024-03-07T20:51:58;101272.00;;;2.51;84.86
75913;BME280;64592;52.168;21.040;2024-03-07T20:57:00;101270.97;;;2.55;84.67
75913;BME280;64592;52.168;21.040;2024-03-07T21:02:01;101271.00;;;2.54;85.41
75913;BME280;64592;52.168;21.040;2024-03-07T21:07:05;101274.69;;;2.50;87.50
75913;BME280;64592;52.168;21.040;2024-03-07T21:12:08;101267.78;;;2.43;86.48
75913;BME280;64592;52.168;21.040;2024-03-07T21:17:09;101266.94;;;2.41;87.86
75913;BME280;64592;52.168;21.040;2024-03-07T21:22:12;101261.81;;;2.34;88.48
75913;BME280;64592;52.168;21.040;2024-03-07T21:27:14;101266.38;;;2.29;89.31
75913;BME280;64592;52.168;21.040;2024-03-07T21:32:16;101257.56;;;2.27;90.71
75913;BME280;64592;52.168;21.040;2024-03-07T21:37:20;101267.72;;;2.12;92.00
75913;BME280;64592;52.168;21.040;2024-03-07T21:42:21;101265.28;;;2.04;90.11
75913;BME280;64592;52.168;21.040;2024-03-07T21:47:24;101281.16;;;2.07;90.94
75913;BME280;64592;52.168;21.040;2024-03-07T21:52:27;101269.59;;;2.08;90.18
75913;BME280;64592;52.168;21.040;2024-03-07T21:57:28;101273.78;;;2.17;88.94
75913;BME280;64592;52.168;21.040;2024-03-07T22:02:30;101272.88;;;2.18;89.55
75913;BME280;64592;52.168;21.040;2024-03-07T22:07:33;101278.38;;;2.12;91.64
75913;BME280;64592;52.168;21.040;2024-03-07T22:12:34;101268.91;;;2.00;91.56
75913;BME280;64592;52.168;21.040;2024-03-07T22:17:37;101262.66;;;2.03;90.71
75913;BME280;64592;52.168;21.040;2024-03-07T22:22:42;101265.97;;;2.11;90.13
75913;BME280;64592;52.168;21.040;2024-03-07T22:27:44;101264.94;;;2.16;89.52
75913;BME280;64592;52.168;21.040;2024-03-07T22:32:45;101259.88;;;2.07;89.99
75913;BME280;64592;52.168;21.040;2024-03-07T22:37:49;101264.44;;;2.02;90.87
75913;BME280;64592;52.168;21.040;2024-03-07T22:42:51;101257.25;;;2.06;90.34
75913;BME280;64592;52.168;21.040;2024-03-07T22:47:53;101261.78;;;2.02;90.37
75913;BME280;64592;52.168;21.040;2024-03-07T22:52:56;101257.66;;;1.90;90.50
75913;BME280;64592;52.168;21.040;2024-03-07T22:57:58;101263.06;;;1.86;90.91
75913;BME280;64592;52.168;21.040;2024-03-07T23:02:59;101258.81;;;1.79;92.19
75913;BME280;64592;52.168;21.040;2024-03-07T23:08:06;101253.75;;;1.70;93.10
75913;BME280;64592;52.168;21.040;2024-03-07T23:13:10;101254.88;;;1.60;94.05
75913;BME280;64592;52.168;21.040;2024-03-07T23:18:13;101260.22;;;1.58;94.79
75913;BME280;64592;52.168;21.040;2024-03-07T23:23:16;101257.72;;;1.52;95.41
75913;BME280;64592;52.168;21.040;2024-03-07T23:28:18;101238.19;;;1.54;95.29
75913;BME280;64592;52.168;21.040;2024-03-07T23:33:19;101241.72;;;1.55;95.40
75913;BME280;64592;52.168;21.040;2024-03-07T23:38:23;101236.44;;;1.53;95.76
75913;BME280;64592;52.168;21.040;2024-03-07T23:43:24;101241.78;;;1.52;96.28
75913;BME280;64592;52.168;21.040;2024-03-07T23:48:26;101235.63;;;1.50;96.29
75913;BME280;64592;52.168;21.040;2024-03-07T23:53:30;101242.66;;;1.52;96.12
75913;BME280;64592;52.168;21.040;2024-03-07T23:58:31;101236.47;;;1.52;96.60
